createdAt,value
2018-12-16T00:00:11.194Z,12.57
2018-12-16T00:02:42.790Z,11.03
2018-12-16T00:05:12.996Z,11.23
2018-12-16T00:07:40.836Z,11.37
2018-12-16T00:10:08.516Z,11.90
2018-12-16T00:12:36.077Z,12.60
2018-12-16T00:15:03.746Z,11.97
2018-12-16T00:17:31.309Z,10.17
2018-12-16T00:19:58.877Z,11.07
2018-12-16T00:22:29.850Z,10.77
2018-12-16T00:24:56.962Z,10.23
2018-12-16T00:27:26.256Z,10.37
2018-12-16T00:29:53.806Z,10.10
2018-12-16T00:32:21.374Z,10.27
2018-12-16T00:34:48.936Z,10.33
2018-12-16T00:37:16.499Z,11.07
2018-12-16T00:39:44.051Z,9.77
2018-12-16T00:42:11.654Z,10.30
2018-12-16T00:44:39.547Z,9.57
2018-12-16T00:47:07.110Z,11.03
2018-12-16T00:49:35.696Z,10.47
2018-12-16T00:52:03.354Z,10.47
2018-12-16T00:54:30.910Z,9.93
2018-12-16T00:56:58.477Z,10.60
2018-12-16T00:59:26.267Z,9.67
2018-12-16T01:01:53.973Z,10.80
2018-12-16T01:04:21.802Z,10.37
2018-12-16T01:06:50.382Z,9.53
2018-12-16T01:09:19.894Z,9.43
2018-12-16T01:11:47.501Z,8.93
2018-12-16T01:14:15.066Z,10.00
2018-12-16T01:16:42.628Z,10.47
2018-12-16T01:19:10.194Z,9.70
2018-12-16T01:21:37.824Z,9.87
2018-12-16T01:24:05.506Z,8.90
2018-12-16T01:26:33.065Z,10.47
2018-12-16T01:29:00.630Z,10.17
2018-12-16T01:31:28.198Z,12.33
2018-12-16T01:33:55.752Z,9.07
2018-12-16T01:36:23.320Z,9.07
2018-12-16T01:38:51.483Z,8.57
2018-12-16T01:41:20.957Z,10.30
2018-12-16T01:43:50.694Z,10.83
2018-12-16T01:46:18.261Z,8.50
2018-12-16T01:48:45.815Z,9.53
2018-12-16T01:51:14.047Z,9.60
2018-12-16T01:53:44.580Z,9.50
2018-12-16T01:56:12.858Z,9.47
2018-12-16T01:58:40.410Z,9.40
2018-12-16T02:01:07.980Z,9.57
2018-12-16T02:03:35.550Z,8.77
2018-12-16T02:06:03.918Z,8.30
2018-12-16T02:08:34.385Z,9.13
2018-12-16T02:11:02.274Z,8.57
2018-12-16T02:13:29.845Z,8.40
2018-12-16T02:15:58.499Z,9.40
2018-12-16T02:18:27.129Z,9.27
2018-12-16T02:20:56.789Z,9.50
2018-12-16T02:23:25.754Z,8.37
2018-12-16T02:25:53.315Z,8.03
2018-12-16T02:28:20.870Z,10.07
2018-12-16T02:30:48.426Z,8.37
2018-12-16T02:33:15.982Z,8.00
2018-12-16T02:35:43.658Z,9.10
2018-12-16T02:38:11.318Z,8.17
2018-12-16T02:40:38.982Z,7.50
2018-12-16T02:43:07.728Z,10.73
2018-12-16T02:45:35.280Z,9.10
2018-12-16T02:48:02.914Z,9.77
2018-12-16T02:50:30.507Z,8.57
2018-12-16T02:53:04.521Z,8.90
2018-12-16T02:55:27.668Z,10.17
2018-12-16T02:57:55.297Z,10.70
2018-12-16T03:00:22.864Z,8.77
2018-12-16T03:02:50.415Z,7.83
2018-12-16T03:05:17.985Z,7.77
2018-12-16T03:07:47.151Z,8.70
2018-12-16T03:10:14.710Z,9.87
2018-12-16T03:12:42.274Z,7.93
2018-12-16T03:15:09.942Z,9.53
2018-12-16T03:17:37.504Z,9.60
2018-12-16T03:20:07.324Z,8.23
2018-12-16T03:22:34.926Z,10.37
2018-12-16T03:25:02.490Z,10.23
2018-12-16T03:27:30.214Z,9.30
2018-12-16T03:29:57.813Z,9.43
2018-12-16T03:32:25.377Z,8.80
2018-12-16T03:34:53.083Z,8.57
2018-12-16T03:37:22.015Z,11.17
2018-12-16T03:39:51.460Z,9.13
2018-12-16T03:42:19.542Z,9.33
2018-12-16T03:44:47.114Z,9.20
2018-12-16T03:47:14.680Z,9.63
2018-12-16T03:49:42.240Z,9.20
2018-12-16T03:52:09.811Z,10.37
2018-12-16T03:54:37.538Z,10.17
2018-12-16T03:57:06.947Z,8.57
2018-12-16T03:59:34.682Z,9.93
2018-12-16T04:02:02.253Z,10.07
2018-12-16T04:04:29.927Z,8.17
2018-12-16T04:06:57.493Z,8.60
2018-12-16T04:09:25.052Z,10.40
2018-12-16T04:11:52.933Z,10.33
2018-12-16T04:14:21.680Z,9.17
2018-12-16T04:16:50.670Z,10.60
2018-12-16T04:19:18.517Z,10.70
2018-12-16T04:21:46.121Z,10.33
2018-12-16T04:24:13.689Z,10.50
2018-12-16T04:26:41.257Z,10.37
2018-12-16T04:29:08.825Z,9.83
2018-12-16T04:31:36.386Z,10.87
2018-12-16T04:34:03.966Z,10.67
2018-12-16T04:36:31.517Z,9.47
2018-12-16T04:38:59.156Z,9.90
2018-12-16T04:41:26.768Z,8.53
2018-12-16T04:43:54.334Z,10.53
2018-12-16T04:46:23.349Z,10.30
2018-12-16T04:48:52.588Z,10.53
2018-12-16T04:51:20.878Z,11.20
2018-12-16T04:53:48.453Z,10.80
2018-12-16T04:56:16.014Z,9.80
2018-12-16T04:58:43.577Z,9.63
2018-12-16T05:01:11.181Z,9.93
2018-12-16T05:03:38.747Z,11.00
2018-12-16T05:06:06.323Z,11.07
2018-12-16T05:08:33.886Z,10.63
2018-12-16T05:11:01.508Z,9.93
2018-12-16T05:13:29.145Z,10.73
2018-12-16T05:15:56.712Z,11.63
2018-12-16T05:18:24.428Z,11.50
2018-12-16T05:20:51.998Z,10.67
2018-12-16T05:23:19.561Z,10.57
2018-12-16T05:25:47.257Z,11.63
2018-12-16T05:28:15.439Z,11.73
2018-12-16T05:30:44.452Z,8.97
2018-12-16T05:33:13.335Z,13.07
2018-12-16T05:35:40.895Z,12.70
2018-12-16T05:38:08.481Z,11.90
2018-12-16T05:40:36.066Z,12.87
2018-12-16T05:43:03.634Z,13.07
2018-12-16T05:45:31.191Z,12.43
2018-12-16T05:47:58.758Z,13.23
2018-12-16T05:50:26.319Z,14.73
2018-12-16T05:52:53.887Z,13.03
2018-12-16T05:55:21.449Z,14.97
2018-12-16T05:57:49.016Z,14.27
2018-12-16T06:00:16.576Z,14.53
2018-12-16T06:02:45.697Z,14.37
2018-12-16T06:05:14.709Z,13.30
2018-12-16T06:07:42.932Z,10.87
2018-12-16T06:10:10.577Z,11.77
2018-12-16T06:12:38.231Z,15.07
2018-12-16T06:15:06.027Z,13.13
2018-12-16T06:17:33.675Z,15.67
2018-12-16T06:20:01.248Z,12.73
2018-12-16T06:22:28.821Z,11.63
2018-12-16T06:24:56.383Z,12.77
2018-12-16T06:27:23.944Z,12.20
2018-12-16T06:29:51.918Z,12.47
2018-12-16T06:32:19.489Z,12.23
2018-12-16T06:34:47.160Z,14.77
2018-12-16T06:37:14.718Z,14.63
2018-12-16T06:39:42.693Z,14.43
2018-12-16T06:42:12.503Z,15.03
2018-12-16T06:44:40.933Z,14.83
2018-12-16T06:47:08.504Z,15.43
2018-12-16T06:49:36.070Z,14.73
2018-12-16T06:52:03.642Z,16.07
2018-12-16T06:54:31.195Z,14.40
2018-12-16T06:56:58.775Z,13.43
2018-12-16T06:59:26.351Z,13.20
2018-12-16T07:01:55.714Z,16.50
2018-12-16T07:04:23.513Z,14.30
2018-12-16T07:06:51.085Z,15.07
2018-12-16T07:09:18.665Z,17.17
2018-12-16T07:11:46.226Z,15.97
2018-12-16T07:14:13.786Z,16.73
2018-12-16T07:16:41.349Z,16.70
2018-12-16T07:19:08.933Z,15.10
2018-12-16T07:21:36.512Z,15.67
2018-12-16T07:24:09.146Z,15.90
2018-12-16T07:26:35.578Z,14.10
2018-12-16T07:29:03.812Z,15.03
2018-12-16T07:31:31.379Z,15.83
2018-12-16T07:33:58.931Z,13.93
2018-12-16T07:36:26.498Z,15.13
2018-12-16T07:38:54.097Z,14.20
2018-12-16T07:41:21.670Z,13.77
2018-12-16T07:43:49.300Z,13.73
2018-12-16T07:46:16.892Z,16.40
2018-12-16T07:48:44.563Z,15.23
2018-12-16T07:51:12.281Z,14.03
2018-12-16T07:53:39.859Z,12.60
2018-12-16T07:56:07.466Z,15.07
2018-12-16T07:58:36.118Z,15.87
2018-12-16T08:01:06.387Z,14.40
2018-12-16T08:03:34.355Z,15.13
2018-12-16T08:06:02.267Z,14.80
2018-12-16T08:08:29.827Z,12.90
2018-12-16T08:10:57.496Z,15.07
2018-12-16T08:13:25.055Z,14.10
2018-12-16T08:15:52.630Z,13.13
2018-12-16T08:18:20.187Z,14.17
2018-12-16T08:20:47.749Z,15.53
2018-12-16T08:23:15.312Z,13.83
2018-12-16T08:25:42.912Z,16.23
2018-12-16T08:28:10.598Z,14.87
2018-12-16T08:30:39.068Z,15.93
2018-12-16T08:33:07.941Z,13.30
2018-12-16T08:35:36.807Z,14.87
2018-12-16T08:38:04.382Z,13.83
2018-12-16T08:40:31.944Z,14.40
2018-12-16T08:42:59.509Z,14.83
2018-12-16T08:45:27.200Z,13.37
2018-12-16T08:47:54.790Z,15.10
2018-12-16T08:50:22.380Z,14.83
2018-12-16T08:52:50.049Z,13.50
2018-12-16T08:55:17.617Z,14.80
2018-12-16T08:57:45.196Z,13.30
2018-12-16T09:00:12.951Z,13.60
2018-12-16T09:02:40.508Z,15.23
2018-12-16T09:05:08.104Z,13.73
2018-12-16T09:07:37.424Z,13.73
2018-12-16T09:10:08.286Z,12.77
2018-12-16T09:12:35.977Z,13.37
2018-12-16T09:15:05.465Z,13.63
2018-12-16T09:17:33.133Z,14.73
2018-12-16T09:20:00.726Z,14.10
2018-12-16T09:22:28.380Z,13.93
2018-12-16T09:24:56.088Z,16.00
2018-12-16T09:27:23.664Z,14.70
2018-12-16T09:29:51.243Z,14.33
2018-12-16T09:32:18.925Z,13.40
2018-12-16T09:34:46.474Z,13.33
2018-12-16T09:37:14.044Z,13.43
2018-12-16T09:39:41.617Z,13.57
2018-12-16T09:42:09.178Z,15.83
2018-12-16T09:44:37.058Z,13.43
2018-12-16T09:47:04.738Z,12.27
2018-12-16T09:49:32.412Z,12.13
2018-12-16T09:52:00.686Z,14.63
2018-12-16T09:54:30.450Z,15.07
2018-12-16T09:56:59.307Z,13.73
2018-12-16T09:59:26.998Z,14.77
2018-12-16T10:01:54.552Z,14.67
2018-12-16T10:04:22.128Z,15.83
2018-12-16T10:06:49.838Z,14.67
2018-12-16T10:09:17.403Z,16.57
2018-12-16T10:11:44.959Z,15.77
2018-12-16T10:14:12.562Z,13.97
2018-12-16T10:16:40.179Z,18.80
2018-12-16T10:19:07.982Z,23.07
2018-12-16T10:21:35.725Z,15.27
2018-12-16T10:24:03.590Z,16.83
2018-12-16T10:26:33.906Z,15.87
2018-12-16T10:29:02.099Z,14.60
2018-12-16T10:31:32.190Z,16.73
2018-12-16T10:33:59.915Z,14.20
2018-12-16T10:36:27.474Z,13.70
2018-12-16T10:38:55.078Z,15.23
2018-12-16T10:41:22.635Z,16.50
2018-12-16T10:43:50.323Z,16.07
2018-12-16T10:46:17.882Z,14.33
2018-12-16T10:48:45.479Z,16.53
2018-12-16T10:51:13.466Z,16.50
2018-12-16T10:53:42.674Z,15.13
2018-12-16T10:56:12.009Z,14.83
2018-12-16T10:58:39.947Z,16.07
2018-12-16T11:01:13.162Z,13.80
2018-12-16T11:03:40.718Z,14.67
2018-12-16T11:06:08.298Z,14.37
2018-12-16T11:08:35.870Z,15.80
2018-12-16T11:11:03.436Z,15.63
2018-12-16T11:13:31.470Z,13.20
2018-12-16T11:16:00.763Z,14.23
2018-12-16T11:18:29.680Z,12.30
2018-12-16T11:20:59.477Z,14.17
2018-12-16T11:23:27.218Z,13.00
2018-12-16T11:25:54.796Z,15.77
2018-12-16T11:28:24.018Z,13.17
2018-12-16T11:30:53.184Z,16.30
2018-12-16T11:33:20.773Z,13.73
2018-12-16T11:35:48.409Z,14.40
2018-12-16T11:38:16.044Z,14.93
2018-12-16T11:40:43.704Z,14.20
2018-12-16T11:43:11.280Z,14.27
2018-12-16T11:45:38.869Z,14.77
2018-12-16T11:48:06.471Z,14.10
2018-12-16T11:50:34.028Z,12.83
2018-12-16T11:53:01.582Z,13.70
2018-12-16T11:55:29.728Z,16.50
2018-12-16T11:57:58.754Z,15.10
2018-12-16T12:00:27.526Z,14.00
2018-12-16T12:02:55.086Z,13.80
2018-12-16T12:05:22.652Z,13.30
2018-12-16T12:07:50.229Z,12.27
2018-12-16T12:10:17.794Z,13.17
2018-12-16T12:12:45.460Z,13.07
2018-12-16T12:15:13.018Z,12.97
2018-12-16T12:17:40.584Z,15.47
2018-12-16T12:20:08.366Z,12.93
2018-12-16T12:22:35.922Z,13.03
2018-12-16T12:25:04.306Z,12.97
2018-12-16T12:27:31.893Z,13.53
2018-12-16T12:29:59.582Z,13.77
2018-12-16T12:32:28.259Z,14.80
2018-12-16T12:34:56.796Z,14.10
2018-12-16T12:37:26.042Z,13.90
2018-12-16T12:39:53.966Z,13.57
2018-12-16T12:42:21.573Z,15.70
2018-12-16T12:44:49.137Z,13.57
2018-12-16T12:47:16.709Z,13.90
2018-12-16T12:49:45.138Z,13.03
2018-12-16T12:52:12.968Z,13.30
2018-12-16T12:54:41.492Z,14.93
2018-12-16T12:57:09.057Z,14.20
2018-12-16T12:59:36.663Z,13.80
2018-12-16T13:02:04.339Z,14.07
2018-12-16T13:04:31.888Z,13.50
2018-12-16T13:06:59.498Z,14.47
2018-12-16T13:09:27.058Z,12.90
2018-12-16T13:11:54.623Z,13.87
2018-12-16T13:14:22.607Z,13.10
2018-12-16T13:16:50.741Z,14.53
2018-12-16T13:19:19.586Z,11.93
2018-12-16T13:21:48.471Z,13.67
2018-12-16T13:24:17.377Z,14.23
2018-12-16T13:26:45.302Z,13.73
2018-12-16T13:29:12.864Z,12.33
2018-12-16T13:31:40.423Z,13.70
2018-12-16T13:34:08.097Z,12.57
2018-12-16T13:36:35.846Z,13.10
2018-12-16T13:39:05.523Z,14.10
2018-12-16T13:41:33.622Z,15.37
2018-12-16T13:44:03.066Z,14.23
2018-12-16T13:46:32.004Z,18.63
2018-12-16T13:48:59.550Z,14.47
2018-12-16T13:51:27.121Z,13.77
2018-12-16T13:53:54.680Z,15.93
2018-12-16T13:56:22.242Z,17.27
2018-12-16T13:58:49.791Z,13.93
2018-12-16T14:01:17.348Z,18.23
2018-12-16T14:03:44.905Z,14.97
2018-12-16T14:06:12.461Z,13.20
2018-12-16T14:08:40.026Z,13.27
2018-12-16T14:11:07.601Z,29.17
2018-12-16T14:13:35.148Z,28.73
2018-12-16T14:16:02.694Z,31.73
2018-12-16T14:18:30.258Z,21.97
2018-12-16T14:20:57.805Z,22.47
2018-12-16T14:23:26.477Z,18.33
2018-12-16T14:25:55.253Z,18.37
2018-12-16T14:28:25.890Z,16.50
2018-12-16T14:30:54.330Z,18.73
2018-12-16T14:33:23.924Z,13.63
2018-12-16T14:35:51.524Z,11.27
2018-12-16T14:38:19.478Z,10.13
2018-12-16T14:40:47.084Z,11.83
2018-12-16T14:43:15.419Z,10.93
2018-12-16T14:45:43.016Z,13.93
2018-12-16T14:48:11.914Z,13.17
2018-12-16T14:50:39.539Z,10.47
2018-12-16T14:53:07.131Z,10.17
2018-12-16T14:55:34.697Z,10.40
2018-12-16T14:58:02.266Z,11.90
2018-12-16T15:00:30.236Z,10.73
2018-12-16T15:02:57.813Z,11.03
2018-12-16T15:05:25.367Z,10.00
2018-12-16T15:07:52.924Z,10.63
2018-12-16T15:10:20.593Z,11.33
2018-12-16T15:12:48.145Z,13.10
2018-12-16T15:15:16.435Z,11.53
2018-12-16T15:17:44.265Z,10.27
2018-12-16T15:20:11.892Z,10.77
2018-12-16T15:22:40.332Z,9.83
2018-12-16T15:25:08.015Z,12.63
2018-12-16T15:27:35.613Z,10.60
2018-12-16T15:30:04.645Z,12.53
2018-12-16T15:32:32.199Z,10.57
2018-12-16T15:34:59.842Z,9.87
2018-12-16T15:37:28.171Z,11.83
2018-12-16T15:39:55.761Z,11.90
2018-12-16T15:42:23.436Z,13.30
2018-12-16T15:44:51.116Z,13.80
2018-12-16T15:47:18.721Z,13.60
2018-12-16T15:49:46.290Z,12.40
2018-12-16T15:52:13.845Z,13.90
2018-12-16T15:54:41.438Z,13.30
2018-12-16T15:57:09.032Z,13.93
2018-12-16T15:59:36.601Z,15.03
2018-12-16T16:02:04.259Z,16.33
2018-12-16T16:04:31.832Z,13.37
2018-12-16T16:06:59.449Z,13.47
2018-12-16T16:09:27.110Z,13.57
2018-12-16T16:11:54.722Z,14.93
2018-12-16T16:14:22.422Z,14.67
2018-12-16T16:16:49.987Z,13.00
2018-12-16T16:19:17.583Z,13.53
2018-12-16T16:21:47.220Z,12.13
2018-12-16T16:24:14.790Z,13.00
2018-12-16T16:26:42.449Z,12.93
2018-12-16T16:29:10.058Z,15.10
2018-12-16T16:31:38.565Z,14.17
2018-12-16T16:34:06.523Z,17.03
2018-12-16T16:36:34.297Z,16.40
2018-12-16T16:39:01.866Z,14.30
2018-12-16T16:41:29.426Z,17.73
2018-12-16T16:43:56.991Z,19.73
2018-12-16T16:46:25.382Z,17.40
2018-12-16T16:48:53.279Z,18.33
2018-12-16T16:51:20.838Z,18.67
2018-12-16T16:53:48.390Z,17.07
2018-12-16T16:56:22.835Z,16.93
2018-12-16T16:58:46.581Z,18.63
2018-12-16T17:01:14.756Z,21.33
2018-12-16T17:03:42.788Z,22.37
2018-12-16T17:06:10.378Z,22.27
2018-12-16T17:08:38.301Z,23.97
2018-12-16T17:11:06.103Z,23.33
2018-12-16T17:13:33.701Z,21.17
2018-12-16T17:16:01.288Z,23.07
2018-12-16T17:18:28.867Z,19.43
2018-12-16T17:20:56.867Z,18.80
2018-12-16T17:23:24.439Z,20.87
2018-12-16T17:25:52.030Z,18.87
2018-12-16T17:28:19.603Z,18.37
2018-12-16T17:30:47.206Z,15.43
2018-12-16T17:33:15.142Z,14.67
2018-12-16T17:35:42.761Z,19.50
2018-12-16T17:38:10.361Z,17.93
2018-12-16T17:40:37.946Z,17.87
2018-12-16T17:43:05.693Z,18.17
2018-12-16T17:45:33.525Z,20.27
2018-12-16T17:48:01.109Z,16.27
2018-12-16T17:50:28.837Z,16.93
2018-12-16T17:52:56.577Z,15.93
2018-12-16T17:55:24.906Z,17.77
2018-12-16T17:57:52.508Z,19.53
2018-12-16T18:00:20.338Z,19.27
2018-12-16T18:02:47.926Z,21.53
2018-12-16T18:05:15.500Z,21.27
2018-12-16T18:07:43.092Z,27.00
2018-12-16T18:10:11.575Z,23.90
2018-12-16T18:12:39.182Z,21.10
2018-12-16T18:15:08.874Z,17.23
2018-12-16T18:17:36.515Z,15.13
2018-12-16T18:20:07.243Z,16.23
2018-12-16T18:22:34.827Z,15.07
2018-12-16T18:25:02.389Z,13.53
2018-12-16T18:27:30.113Z,13.37
2018-12-16T18:29:57.669Z,14.33
2018-12-16T18:32:25.442Z,14.13
2018-12-16T18:34:53.014Z,13.27
2018-12-16T18:37:21.100Z,17.10
2018-12-16T18:39:48.747Z,15.90
2018-12-16T18:42:16.803Z,13.83
2018-12-16T18:44:44.383Z,14.63
2018-12-16T18:47:11.932Z,15.17
2018-12-16T18:49:39.649Z,15.80
2018-12-16T18:52:07.264Z,16.20
2018-12-16T18:54:34.898Z,16.50
2018-12-16T18:57:07.215Z,16.80
2018-12-16T18:59:32.682Z,16.30
2018-12-16T19:02:00.246Z,19.60
2018-12-16T19:04:27.816Z,15.40
2018-12-16T19:06:56.653Z,16.23
2018-12-16T19:09:24.407Z,19.87
2018-12-16T19:11:51.967Z,19.20
2018-12-16T19:14:19.818Z,18.47
2018-12-16T19:16:47.667Z,20.00
2018-12-16T19:19:15.439Z,19.40
2018-12-16T19:21:43.145Z,19.70
2018-12-16T19:24:10.737Z,20.57
2018-12-16T19:26:38.312Z,19.20
2018-12-16T19:29:06.843Z,19.77
2018-12-16T19:31:35.872Z,19.40
2018-12-16T19:34:03.675Z,17.27
2018-12-16T19:36:31.251Z,17.77
2018-12-16T19:38:58.966Z,18.10
2018-12-16T19:41:26.636Z,15.40
2018-12-16T19:43:54.215Z,19.73
2018-12-16T19:46:21.975Z,18.77
2018-12-16T19:48:49.601Z,20.10
2018-12-16T19:51:17.425Z,19.77
2018-12-16T19:53:45.106Z,18.73
2018-12-16T19:56:13.419Z,18.00
2018-12-16T19:58:41.364Z,19.53
2018-12-16T20:01:08.999Z,17.67
2018-12-16T20:03:38.706Z,18.30
2018-12-16T20:06:12.387Z,16.77
2018-12-16T20:08:40.087Z,20.40
2018-12-16T20:11:08.443Z,18.50
2018-12-16T20:13:36.545Z,19.10
2018-12-16T20:16:04.337Z,19.53
2018-12-16T20:18:31.905Z,18.63
2018-12-16T20:20:59.501Z,18.97
2018-12-16T20:23:27.094Z,22.17
2018-12-16T20:25:54.738Z,26.50
2018-12-16T20:28:22.320Z,40.13
2018-12-16T20:30:49.983Z,37.17
2018-12-16T20:33:17.672Z,26.40
2018-12-16T20:35:45.251Z,22.57
2018-12-16T20:38:13.134Z,21.03
2018-12-16T20:40:41.051Z,19.30
2018-12-16T20:43:09.261Z,21.70
2018-12-16T20:45:36.851Z,21.77
2018-12-16T20:48:04.422Z,20.13
2018-12-16T20:50:32.072Z,18.37
2018-12-16T20:52:59.739Z,16.17
2018-12-16T20:55:27.525Z,21.10
2018-12-16T20:57:55.297Z,20.73
2018-12-16T21:00:22.926Z,19.10
2018-12-16T21:02:50.796Z,18.80
2018-12-16T21:05:18.365Z,17.20
2018-12-16T21:07:46.042Z,16.43
2018-12-16T21:10:13.633Z,20.23
2018-12-16T21:12:46.846Z,23.97
2018-12-16T21:15:20.365Z,19.40
2018-12-16T21:17:54.023Z,24.37
2018-12-16T21:20:21.652Z,26.03
2018-12-16T21:22:49.219Z,26.87
2018-12-16T21:25:16.792Z,24.17
2018-12-16T21:27:45.449Z,26.13
2018-12-16T21:30:13.895Z,23.10
2018-12-16T21:32:41.471Z,26.53
2018-12-16T21:35:09.035Z,23.77
2018-12-16T21:37:36.716Z,23.70
2018-12-16T21:40:05.404Z,25.40
2018-12-16T21:42:34.277Z,23.43
2018-12-16T21:45:02.226Z,23.83
2018-12-16T21:47:29.791Z,23.87
2018-12-16T21:49:57.909Z,21.27
2018-12-16T21:52:25.497Z,20.27
2018-12-16T21:54:53.111Z,20.10
2018-12-16T21:57:20.694Z,18.03
2018-12-16T21:59:48.861Z,18.07
2018-12-16T22:02:16.606Z,18.37
2018-12-16T22:04:45.012Z,17.53
2018-12-16T22:07:12.759Z,17.13
2018-12-16T22:09:40.323Z,18.40
2018-12-16T22:12:07.923Z,18.83
2018-12-16T22:14:35.524Z,19.40
2018-12-16T22:17:03.189Z,18.33
2018-12-16T22:19:31.486Z,18.63
2018-12-16T22:21:59.082Z,22.17
2018-12-16T22:24:27.128Z,20.40
2018-12-16T22:26:54.731Z,19.23
2018-12-16T22:29:22.367Z,22.10
2018-12-16T22:31:49.966Z,18.53
2018-12-16T22:34:17.542Z,17.47
2018-12-16T22:36:45.098Z,21.10
2018-12-16T22:39:12.737Z,19.07
2018-12-16T22:41:40.308Z,20.30
2018-12-16T22:44:08.034Z,28.97
2018-12-16T22:46:35.905Z,24.57
2018-12-16T22:49:03.511Z,22.47
2018-12-16T22:51:31.085Z,25.17
2018-12-16T22:53:58.704Z,22.80
2018-12-16T22:56:26.314Z,22.97
2018-12-16T22:58:54.727Z,22.00
2018-12-16T23:01:22.327Z,20.77
2018-12-16T23:03:50.111Z,20.60
2018-12-16T23:06:17.673Z,18.93
2018-12-16T23:08:46.315Z,19.07
2018-12-16T23:11:14.279Z,18.83
2018-12-16T23:13:41.881Z,16.33
2018-12-16T23:16:10.473Z,17.70
2018-12-16T23:18:38.961Z,17.60
2018-12-16T23:26:52.921Z,29.10
2018-12-16T23:29:20.547Z,32.03
2018-12-16T23:31:48.143Z,28.10
2018-12-16T23:34:15.952Z,21.80
2018-12-16T23:36:43.529Z,16.80
2018-12-16T23:39:11.102Z,15.60
2018-12-16T23:41:39.110Z,15.03
2018-12-16T23:44:08.193Z,13.23
2018-12-16T23:49:09.018Z,13.10
2018-12-16T23:51:36.569Z,15.13
2018-12-16T23:54:04.233Z,14.50
2018-12-16T23:56:31.910Z,13.10
2018-12-16T23:58:59.475Z,14.23
